sensor_id;sensor_type;location;lat;lon;timestamp;temperature;humidity
29803;DHT22;16702;50.898;4.662;2023-04-25T00:00:01;11.70;99.90
29803;DHT22;16702;50.898;4.662;2023-04-25T00:02:40;11.70;99.90
29803;DHT22;16702;50.898;4.662;2023-04-25T00:05:12;11.70;99.90
29803;DHT22;16702;50.898;4.662;2023-04-25T00:07:43;11.70;99.90
29803;DHT22;16702;50.898;4.662;2023-04-25T00:10:14;11.70;99.90
29803;DHT22;16702;50.898;4.662;2023-04-25T00:12:44;11.70;99.90
29803;DHT22;16702;50.898;4.662;2023-04-25T00:15:15;11.60;99.90
29803;DHT22;16702;50.898;4.662;2023-04-25T00:17:48;11.60;99.90
29803;DHT22;16702;50.898;4.662;2023-04-25T00:20:20;11.60;99.90
29803;DHT22;16702;50.898;4.662;2023-04-25T00:22:50;11.60;99.90
29803;DHT22;16702;50.898;4.662;2023-04-25T00:25:21;11.60;99.90
29803;DHT22;16702;50.898;4.662;2023-04-25T00:27:51;11.60;99.90
29803;DHT22;16702;50.898;4.662;2023-04-25T00:30:25;11.60;99.90
29803;DHT22;16702;50.898;4.662;2023-04-25T00:32:58;11.50;99.90
29803;DHT22;16702;50.898;4.662;2023-04-25T00:35:29;11.60;99.90
29803;DHT22;16702;50.898;4.662;2023-04-25T00:38:00;11.50;99.90
29803;DHT22;16702;50.898;4.662;2023-04-25T00:40:30;11.60;99.90
29803;DHT22;16702;50.898;4.662;2023-04-25T00:43:01;11.60;99.90
29803;DHT22;16702;50.898;4.662;2023-04-25T00:45:31;11.60;99.90
29803;DHT22;16702;50.898;4.662;2023-04-25T00:48:06;11.60;99.90
29803;DHT22;16702;50.898;4.662;2023-04-25T00:50:39;11.60;99.90
29803;DHT22;16702;50.898;4.662;2023-04-25T00:53:10;11.50;99.90
29803;DHT22;16702;50.898;4.662;2023-04-25T00:55:40;11.60;99.90
29803;DHT22;16702;50.898;4.662;2023-04-25T00:58:10;11.50;99.90
29803;DHT22;16702;50.898;4.662;2023-04-25T01:00:42;11.50;99.90
29803;DHT22;16702;50.898;4.662;2023-04-25T01:03:16;11.50;99.90
29803;DHT22;16702;50.898;4.662;2023-04-25T01:05:48;11.50;99.90
29803;DHT22;16702;50.898;4.662;2023-04-25T01:08:18;11.50;99.90
29803;DHT22;16702;50.898;4.662;2023-04-25T01:10:52;11.50;99.90
29803;DHT22;16702;50.898;4.662;2023-04-25T01:13:22;11.40;99.90
29803;DHT22;16702;50.898;4.662;2023-04-25T01:15:53;11.40;99.90
29803;DHT22;16702;50.898;4.662;2023-04-25T01:18:26;11.30;99.90
29803;DHT22;16702;50.898;4.662;2023-04-25T01:21:03;11.40;99.90
29803;DHT22;16702;50.898;4.662;2023-04-25T01:23:39;11.40;99.90
29803;DHT22;16702;50.898;4.662;2023-04-25T01:26:11;11.30;99.90
29803;DHT22;16702;50.898;4.662;2023-04-25T01:28:43;11.30;99.90
29803;DHT22;16702;50.898;4.662;2023-04-25T01:31:14;11.30;99.90
29803;DHT22;16702;50.898;4.662;2023-04-25T01:33:46;11.30;99.90
29803;DHT22;16702;50.898;4.662;2023-04-25T01:36:19;11.30;99.90
29803;DHT22;16702;50.898;4.662;2023-04-25T01:38:50;11.20;99.90
29803;DHT22;16702;50.898;4.662;2023-04-25T01:41:21;11.20;99.90
29803;DHT22;16702;50.898;4.662;2023-04-25T01:43:52;11.30;99.90
29803;DHT22;16702;50.898;4.662;2023-04-25T01:46:23;11.20;99.90
29803;DHT22;16702;50.898;4.662;2023-04-25T01:48:54;11.30;99.90
29803;DHT22;16702;50.898;4.662;2023-04-25T01:51:27;11.30;99.90
29803;DHT22;16702;50.898;4.662;2023-04-25T01:53:59;11.20;99.90
29803;DHT22;16702;50.898;4.662;2023-04-25T01:56:30;11.20;99.90
29803;DHT22;16702;50.898;4.662;2023-04-25T01:59:02;11.20;99.90
29803;DHT22;16702;50.898;4.662;2023-04-25T02:01:49;11.10;99.90
29803;DHT22;16702;50.898;4.662;2023-04-25T02:04:26;11.10;99.90
29803;DHT22;16702;50.898;4.662;2023-04-25T02:06:59;11.10;99.90
29803;DHT22;16702;50.898;4.662;2023-04-25T02:09:42;11.10;99.90
29803;DHT22;16702;50.898;4.662;2023-04-25T02:12:13;11.10;99.90
29803;DHT22;16702;50.898;4.662;2023-04-25T02:14:50;11.10;99.90
29803;DHT22;16702;50.898;4.662;2023-04-25T02:17:27;11.10;99.90
29803;DHT22;16702;50.898;4.662;2023-04-25T02:19:59;11.10;99.90
29803;DHT22;16702;50.898;4.662;2023-04-25T02:22:32;11.10;99.90
29803;DHT22;16702;50.898;4.662;2023-04-25T02:25:06;11.10;99.90
29803;DHT22;16702;50.898;4.662;2023-04-25T02:27:38;11.00;99.90
29803;DHT22;16702;50.898;4.662;2023-04-25T02:30:09;11.00;99.90
29803;DHT22;16702;50.898;4.662;2023-04-25T02:32:39;11.00;99.90
29803;DHT22;16702;50.898;4.662;2023-04-25T02:35:10;11.00;99.90
29803;DHT22;16702;50.898;4.662;2023-04-25T02:37:43;11.00;99.90
29803;DHT22;16702;50.898;4.662;2023-04-25T02:40:13;11.00;99.90
29803;DHT22;16702;50.898;4.662;2023-04-25T02:42:44;11.00;99.90
29803;DHT22;16702;50.898;4.662;2023-04-25T02:45:15;11.00;99.90
29803;DHT22;16702;50.898;4.662;2023-04-25T02:47:46;11.00;99.90
29803;DHT22;16702;50.898;4.662;2023-04-25T02:50:18;10.90;99.90
29803;DHT22;16702;50.898;4.662;2023-04-25T02:52:51;10.90;99.90
29803;DHT22;16702;50.898;4.662;2023-04-25T02:55:27;10.90;99.90
29803;DHT22;16702;50.898;4.662;2023-04-25T02:58:01;11.00;99.90
29803;DHT22;16702;50.898;4.662;2023-04-25T03:00:58;11.00;99.90
29803;DHT22;16702;50.898;4.662;2023-04-25T03:03:28;10.90;99.90
29803;DHT22;16702;50.898;4.662;2023-04-25T03:05:59;10.90;99.90
29803;DHT22;16702;50.898;4.662;2023-04-25T03:08:34;10.80;99.90
29803;DHT22;16702;50.898;4.662;2023-04-25T03:11:05;10.80;99.90
29803;DHT22;16702;50.898;4.662;2023-04-25T03:13:35;10.70;99.90
29803;DHT22;16702;50.898;4.662;2023-04-25T03:16:08;10.80;99.90
29803;DHT22;16702;50.898;4.662;2023-04-25T03:18:39;10.80;99.90
29803;DHT22;16702;50.898;4.662;2023-04-25T03:21:10;10.80;99.90
29803;DHT22;16702;50.898;4.662;2023-04-25T03:23:43;10.80;99.90
29803;DHT22;16702;50.898;4.662;2023-04-25T03:26:13;10.80;99.90
29803;DHT22;16702;50.898;4.662;2023-04-25T03:28:44;10.80;99.90
29803;DHT22;16702;50.898;4.662;2023-04-25T03:31:14;10.70;99.90
29803;DHT22;16702;50.898;4.662;2023-04-25T03:33:45;10.70;99.90
29803;DHT22;16702;50.898;4.662;2023-04-25T03:36:17;10.60;99.90
29803;DHT22;16702;50.898;4.662;2023-04-25T03:38:50;10.60;99.90
29803;DHT22;16702;50.898;4.662;2023-04-25T03:41:21;10.50;99.90
29803;DHT22;16702;50.898;4.662;2023-04-25T03:43:56;10.50;99.90
29803;DHT22;16702;50.898;4.662;2023-04-25T03:46:27;10.30;99.90
29803;DHT22;16702;50.898;4.662;2023-04-25T03:48:57;10.40;99.90
29803;DHT22;16702;50.898;4.662;2023-04-25T03:51:46;10.20;99.90
29803;DHT22;16702;50.898;4.662;2023-04-25T03:54:20;10.20;99.90
29803;DHT22;16702;50.898;4.662;2023-04-25T03:57:19;10.20;99.90
29803;DHT22;16702;50.898;4.662;2023-04-25T03:59:50;10.10;99.90
29803;DHT22;16702;50.898;4.662;2023-04-25T04:02:22;10.10;99.90
29803;DHT22;16702;50.898;4.662;2023-04-25T04:04:53;10.10;99.90
29803;DHT22;16702;50.898;4.662;2023-04-25T04:07:24;10.20;99.90
29803;DHT22;16702;50.898;4.662;2023-04-25T04:09:59;10.20;99.90
29803;DHT22;16702;50.898;4.662;2023-04-25T04:12:35;10.30;99.90
29803;DHT22;16702;50.898;4.662;2023-04-25T04:15:07;10.30;99.90
29803;DHT22;16702;50.898;4.662;2023-04-25T04:17:38;10.30;99.90
29803;DHT22;16702;50.898;4.662;2023-04-25T04:20:09;10.30;99.90
29803;DHT22;16702;50.898;4.662;2023-04-25T04:22:41;10.30;99.90
29803;DHT22;16702;50.898;4.662;2023-04-25T04:25:16;10.20;99.90
29803;DHT22;16702;50.898;4.662;2023-04-25T04:28:22;10.30;99.90
29803;DHT22;16702;50.898;4.662;2023-04-25T04:31:02;10.30;99.90
29803;DHT22;16702;50.898;4.662;2023-04-25T04:33:32;10.40;99.90
29803;DHT22;16702;50.898;4.662;2023-04-25T04:36:06;10.30;99.90
29803;DHT22;16702;50.898;4.662;2023-04-25T04:38:37;10.20;99.90
29803;DHT22;16702;50.898;4.662;2023-04-25T04:41:19;10.20;99.90
29803;DHT22;16702;50.898;4.662;2023-04-25T04:44:11;10.30;99.90
29803;DHT22;16702;50.898;4.662;2023-04-25T04:47:03;10.30;99.90
29803;DHT22;16702;50.898;4.662;2023-04-25T04:49:48;10.30;99.90
29803;DHT22;16702;50.898;4.662;2023-04-25T04:52:54;10.30;99.90
29803;DHT22;16702;50.898;4.662;2023-04-25T04:55:43;10.20;99.90
29803;DHT22;16702;50.898;4.662;2023-04-25T04:58:26;10.20;99.90
29803;DHT22;16702;50.898;4.662;2023-04-25T05:01:20;10.20;99.90
29803;DHT22;16702;50.898;4.662;2023-04-25T05:03:56;10.20;99.90
29803;DHT22;16702;50.898;4.662;2023-04-25T05:06:46;10.10;99.90
29803;DHT22;16702;50.898;4.662;2023-04-25T05:09:41;10.10;99.90
29803;DHT22;16702;50.898;4.662;2023-04-25T05:12:38;10.10;99.90
29803;DHT22;16702;50.898;4.662;2023-04-25T05:15:19;10.00;99.90
29803;DHT22;16702;50.898;4.662;2023-04-25T05:18:05;10.00;99.90
29803;DHT22;16702;50.898;4.662;2023-04-25T05:20:45;9.90;99.90
29803;DHT22;16702;50.898;4.662;2023-04-25T05:23:15;9.90;99.90
29803;DHT22;16702;50.898;4.662;2023-04-25T05:26:09;9.90;99.90
29803;DHT22;16702;50.898;4.662;2023-04-25T05:28:52;9.90;99.90
29803;DHT22;16702;50.898;4.662;2023-04-25T05:32:00;9.90;99.90
29803;DHT22;16702;50.898;4.662;2023-04-25T05:34:31;9.90;99.90
29803;DHT22;16702;50.898;4.662;2023-04-25T05:37:05;9.90;99.90
29803;DHT22;16702;50.898;4.662;2023-04-25T05:39:46;10.00;99.90
29803;DHT22;16702;50.898;4.662;2023-04-25T05:42:36;10.00;99.90
29803;DHT22;16702;50.898;4.662;2023-04-25T05:45:27;9.90;99.90
29803;DHT22;16702;50.898;4.662;2023-04-25T05:48:14;9.90;99.90
29803;DHT22;16702;50.898;4.662;2023-04-25T05:50:58;9.90;99.90
29803;DHT22;16702;50.898;4.662;2023-04-25T05:53:48;9.90;99.90
29803;DHT22;16702;50.898;4.662;2023-04-25T05:56:19;9.90;99.90
29803;DHT22;16702;50.898;4.662;2023-04-25T05:58:52;9.90;99.90
29803;DHT22;16702;50.898;4.662;2023-04-25T06:01:23;9.90;99.90
29803;DHT22;16702;50.898;4.662;2023-04-25T06:03:56;9.90;99.90
29803;DHT22;16702;50.898;4.662;2023-04-25T06:06:27;9.90;99.90
29803;DHT22;16702;50.898;4.662;2023-04-25T06:08:59;9.90;99.90
29803;DHT22;16702;50.898;4.662;2023-04-25T06:11:31;10.00;99.90
29803;DHT22;16702;50.898;4.662;2023-04-25T06:14:03;10.00;99.90
29803;DHT22;16702;50.898;4.662;2023-04-25T06:16:36;10.00;99.90
29803;DHT22;16702;50.898;4.662;2023-04-25T06:19:09;9.90;99.90
29803;DHT22;16702;50.898;4.662;2023-04-25T06:21:39;10.00;99.90
29803;DHT22;16702;50.898;4.662;2023-04-25T06:24:10;10.00;99.90
29803;DHT22;16702;50.898;4.662;2023-04-25T06:26:40;10.00;99.90
29803;DHT22;16702;50.898;4.662;2023-04-25T06:29:11;9.90;99.90
29803;DHT22;16702;50.898;4.662;2023-04-25T06:31:42;9.90;99.90
29803;DHT22;16702;50.898;4.662;2023-04-25T06:34:15;10.00;99.90
29803;DHT22;16702;50.898;4.662;2023-04-25T06:36:46;9.90;99.90
29803;DHT22;16702;50.898;4.662;2023-04-25T06:39:17;10.00;99.90
29803;DHT22;16702;50.898;4.662;2023-04-25T06:41:49;9.90;99.90
29803;DHT22;16702;50.898;4.662;2023-04-25T06:44:41;10.00;99.90
29803;DHT22;16702;50.898;4.662;2023-04-25T06:47:12;10.00;99.90
29803;DHT22;16702;50.898;4.662;2023-04-25T06:49:46;9.90;99.90
29803;DHT22;16702;50.898;4.662;2023-04-25T06:52:16;9.90;99.90
29803;DHT22;16702;50.898;4.662;2023-04-25T06:54:48;9.90;99.90
29803;DHT22;16702;50.898;4.662;2023-04-25T06:57:38;9.90;99.90
29803;DHT22;16702;50.898;4.662;2023-04-25T07:00:35;10.00;99.90
29803;DHT22;16702;50.898;4.662;2023-04-25T07:03:06;10.00;99.90
29803;DHT22;16702;50.898;4.662;2023-04-25T07:05:40;9.90;99.90
29803;DHT22;16702;50.898;4.662;2023-04-25T07:08:11;10.00;99.90
29803;DHT22;16702;50.898;4.662;2023-04-25T07:10:42;10.00;99.90
29803;DHT22;16702;50.898;4.662;2023-04-25T07:13:16;10.10;99.90
29803;DHT22;16702;50.898;4.662;2023-04-25T07:15:46;10.00;99.90
29803;DHT22;16702;50.898;4.662;2023-04-25T07:18:20;10.10;99.90
29803;DHT22;16702;50.898;4.662;2023-04-25T07:20:54;10.10;99.90
29803;DHT22;16702;50.898;4.662;2023-04-25T07:23:24;10.00;99.90
29803;DHT22;16702;50.898;4.662;2023-04-25T07:25:55;10.10;99.90
29803;DHT22;16702;50.898;4.662;2023-04-25T07:28:27;10.10;99.90
29803;DHT22;16702;50.898;4.662;2023-04-25T07:30:58;10.10;99.90
29803;DHT22;16702;50.898;4.662;2023-04-25T07:33:28;10.10;99.90
29803;DHT22;16702;50.898;4.662;2023-04-25T07:36:02;10.10;99.90
29803;DHT22;16702;50.898;4.662;2023-04-25T07:38:33;10.10;99.90
29803;DHT22;16702;50.898;4.662;2023-04-25T07:41:03;10.20;99.90
29803;DHT22;16702;50.898;4.662;2023-04-25T07:43:35;10.20;99.90
29803;DHT22;16702;50.898;4.662;2023-04-25T07:46:05;10.20;99.90
29803;DHT22;16702;50.898;4.662;2023-04-25T07:48:37;10.20;99.90
29803;DHT22;16702;50.898;4.662;2023-04-25T07:51:10;10.40;99.90
29803;DHT22;16702;50.898;4.662;2023-04-25T07:53:41;10.20;99.90
29803;DHT22;16702;50.898;4.662;2023-04-25T07:56:14;10.30;99.90
29803;DHT22;16702;50.898;4.662;2023-04-25T07:58:47;10.30;99.90
29803;DHT22;16702;50.898;4.662;2023-04-25T08:01:19;10.30;99.90
29803;DHT22;16702;50.898;4.662;2023-04-25T08:03:57;10.20;99.90
29803;DHT22;16702;50.898;4.662;2023-04-25T08:06:49;10.20;99.90
29803;DHT22;16702;50.898;4.662;2023-04-25T08:09:27;10.20;99.90
29803;DHT22;16702;50.898;4.662;2023-04-25T08:12:04;10.20;99.90
29803;DHT22;16702;50.898;4.662;2023-04-25T08:14:36;10.20;99.90
29803;DHT22;16702;50.898;4.662;2023-04-25T08:17:07;10.20;99.90
29803;DHT22;16702;50.898;4.662;2023-04-25T08:19:40;10.10;99.90
29803;DHT22;16702;50.898;4.662;2023-04-25T08:22:23;10.00;99.90
29803;DHT22;16702;50.898;4.662;2023-04-25T08:25:11;10.00;99.90
29803;DHT22;16702;50.898;4.662;2023-04-25T08:27:43;10.00;99.90
29803;DHT22;16702;50.898;4.662;2023-04-25T08:30:15;10.00;99.90
29803;DHT22;16702;50.898;4.662;2023-04-25T08:32:46;9.90;99.90
29803;DHT22;16702;50.898;4.662;2023-04-25T08:35:39;9.90;99.90
29803;DHT22;16702;50.898;4.662;2023-04-25T08:38:13;9.90;99.90
29803;DHT22;16702;50.898;4.662;2023-04-25T08:40:44;9.90;99.90
29803;DHT22;16702;50.898;4.662;2023-04-25T08:43:18;10.00;99.90
29803;DHT22;16702;50.898;4.662;2023-04-25T08:45:49;10.00;99.90
29803;DHT22;16702;50.898;4.662;2023-04-25T08:48:36;10.10;99.90
29803;DHT22;16702;50.898;4.662;2023-04-25T08:51:10;10.20;99.90
29803;DHT22;16702;50.898;4.662;2023-04-25T08:53:51;10.20;99.90
29803;DHT22;16702;50.898;4.662;2023-04-25T08:56:28;10.30;99.90
29803;DHT22;16702;50.898;4.662;2023-04-25T08:59:02;10.30;99.90
29803;DHT22;16702;50.898;4.662;2023-04-25T09:01:36;10.40;99.90
29803;DHT22;16702;50.898;4.662;2023-04-25T09:04:07;10.30;99.90
29803;DHT22;16702;50.898;4.662;2023-04-25T09:06:40;10.20;99.90
29803;DHT22;16702;50.898;4.662;2023-04-25T09:09:13;10.30;99.90
29803;DHT22;16702;50.898;4.662;2023-04-25T09:11:44;10.60;99.90
29803;DHT22;16702;50.898;4.662;2023-04-25T09:14:16;10.80;99.90
29803;DHT22;16702;50.898;4.662;2023-04-25T09:17:11;11.00;99.90
29803;DHT22;16702;50.898;4.662;2023-04-25T09:19:44;10.90;99.90
29803;DHT22;16702;50.898;4.662;2023-04-25T09:22:30;10.80;99.90
29803;DHT22;16702;50.898;4.662;2023-04-25T09:25:08;10.60;99.90
29803;DHT22;16702;50.898;4.662;2023-04-25T09:27:49;10.50;99.90
29803;DHT22;16702;50.898;4.662;2023-04-25T09:30:29;10.60;99.90
29803;DHT22;16702;50.898;4.662;2023-04-25T09:33:31;10.50;99.90
29803;DHT22;16702;50.898;4.662;2023-04-25T09:36:06;10.50;99.90
29803;DHT22;16702;50.898;4.662;2023-04-25T09:38:56;10.30;99.90
29803;DHT22;16702;50.898;4.662;2023-04-25T09:41:31;10.30;99.90
29803;DHT22;16702;50.898;4.662;2023-04-25T09:44:03;10.40;99.90
29803;DHT22;16702;50.898;4.662;2023-04-25T09:46:37;10.50;99.90
29803;DHT22;16702;50.898;4.662;2023-04-25T09:49:16;10.50;99.90
29803;DHT22;16702;50.898;4.662;2023-04-25T09:52:02;10.40;99.90
29803;DHT22;16702;50.898;4.662;2023-04-25T09:54:42;10.50;99.90
29803;DHT22;16702;50.898;4.662;2023-04-25T09:57:19;10.50;99.90
29803;DHT22;16702;50.898;4.662;2023-04-25T09:59:52;10.40;99.90
29803;DHT22;16702;50.898;4.662;2023-04-25T10:02:27;10.40;99.90
29803;DHT22;16702;50.898;4.662;2023-04-25T10:05:07;10.50;99.90
29803;DHT22;16702;50.898;4.662;2023-04-25T10:07:40;10.70;99.90
29803;DHT22;16702;50.898;4.662;2023-04-25T10:10:15;11.00;99.90
29803;DHT22;16702;50.898;4.662;2023-04-25T10:12:49;11.20;99.90
29803;DHT22;16702;50.898;4.662;2023-04-25T10:15:21;11.50;99.90
29803;DHT22;16702;50.898;4.662;2023-04-25T10:17:53;11.40;99.90
29803;DHT22;16702;50.898;4.662;2023-04-25T10:20:23;11.30;99.90
29803;DHT22;16702;50.898;4.662;2023-04-25T10:22:57;11.30;99.90
29803;DHT22;16702;50.898;4.662;2023-04-25T10:25:29;11.30;99.90
29803;DHT22;16702;50.898;4.662;2023-04-25T10:28:03;11.20;99.90
29803;DHT22;16702;50.898;4.662;2023-04-25T10:30:34;11.00;99.90
29803;DHT22;16702;50.898;4.662;2023-04-25T10:33:16;11.10;99.90
29803;DHT22;16702;50.898;4.662;2023-04-25T10:35:47;11.20;99.90
29803;DHT22;16702;50.898;4.662;2023-04-25T10:38:18;11.10;99.90
29803;DHT22;16702;50.898;4.662;2023-04-25T10:41:03;11.10;99.90
29803;DHT22;16702;50.898;4.662;2023-04-25T10:43:42;11.10;99.90
29803;DHT22;16702;50.898;4.662;2023-04-25T10:46:18;11.50;99.90
29803;DHT22;16702;50.898;4.662;2023-04-25T10:48:50;11.60;99.90
29803;DHT22;16702;50.898;4.662;2023-04-25T10:51:22;11.90;99.90
29803;DHT22;16702;50.898;4.662;2023-04-25T10:54:00;12.20;99.90
29803;DHT22;16702;50.898;4.662;2023-04-25T10:56:31;11.80;99.90
29803;DHT22;16702;50.898;4.662;2023-04-25T10:59:11;11.70;99.90
29803;DHT22;16702;50.898;4.662;2023-04-25T11:01:42;11.70;99.90
29803;DHT22;16702;50.898;4.662;2023-04-25T11:04:20;11.60;99.90
29803;DHT22;16702;50.898;4.662;2023-04-25T11:07:02;11.50;99.90
29803;DHT22;16702;50.898;4.662;2023-04-25T11:09:35;11.50;99.90
29803;DHT22;16702;50.898;4.662;2023-04-25T11:12:08;11.40;99.90
29803;DHT22;16702;50.898;4.662;2023-04-25T11:14:42;11.40;99.90
29803;DHT22;16702;50.898;4.662;2023-04-25T11:17:13;11.40;99.90
29803;DHT22;16702;50.898;4.662;2023-04-25T11:19:43;11.40;99.90
29803;DHT22;16702;50.898;4.662;2023-04-25T11:22:14;11.20;99.90
29803;DHT22;16702;50.898;4.662;2023-04-25T11:24:45;11.30;99.90
29803;DHT22;16702;50.898;4.662;2023-04-25T11:27:16;11.20;99.90
29803;DHT22;16702;50.898;4.662;2023-04-25T11:29:49;11.30;99.90
29803;DHT22;16702;50.898;4.662;2023-04-25T11:32:20;11.40;99.90
29803;DHT22;16702;50.898;4.662;2023-04-25T11:34:53;11.40;99.90
29803;DHT22;16702;50.898;4.662;2023-04-25T11:37:24;11.40;99.90
29803;DHT22;16702;50.898;4.662;2023-04-25T11:39:55;11.40;99.90
29803;DHT22;16702;50.898;4.662;2023-04-25T11:42:25;11.60;99.90
29803;DHT22;16702;50.898;4.662;2023-04-25T11:44:58;11.60;99.90
29803;DHT22;16702;50.898;4.662;2023-04-25T11:47:29;11.60;99.90
29803;DHT22;16702;50.898;4.662;2023-04-25T11:50:01;11.60;99.90
29803;DHT22;16702;50.898;4.662;2023-04-25T11:52:39;11.80;99.90
29803;DHT22;16702;50.898;4.662;2023-04-25T11:55:12;11.80;99.90
29803;DHT22;16702;50.898;4.662;2023-04-25T11:57:44;11.80;99.90
29803;DHT22;16702;50.898;4.662;2023-04-25T12:00:20;11.80;99.90
29803;DHT22;16702;50.898;4.662;2023-04-25T12:02:52;11.70;99.90
29803;DHT22;16702;50.898;4.662;2023-04-25T12:05:25;11.90;99.90
29803;DHT22;16702;50.898;4.662;2023-04-25T12:08:18;11.80;99.90
29803;DHT22;16702;50.898;4.662;2023-04-25T12:10:48;12.20;99.90
29803;DHT22;16702;50.898;4.662;2023-04-25T12:13:24;12.40;99.90
29803;DHT22;16702;50.898;4.662;2023-04-25T12:16:00;12.20;99.90
29803;DHT22;16702;50.898;4.662;2023-04-25T12:18:31;12.00;99.90
29803;DHT22;16702;50.898;4.662;2023-04-25T12:21:01;11.90;99.90
29803;DHT22;16702;50.898;4.662;2023-04-25T12:23:34;12.00;99.90
29803;DHT22;16702;50.898;4.662;2023-04-25T12:26:09;12.20;99.90
29803;DHT22;16702;50.898;4.662;2023-04-25T12:28:39;12.40;99.90
29803;DHT22;16702;50.898;4.662;2023-04-25T12:31:12;12.30;99.90
29803;DHT22;16702;50.898;4.662;2023-04-25T12:33:43;12.20;99.90
29803;DHT22;16702;50.898;4.662;2023-04-25T12:36:15;12.00;99.90
29803;DHT22;16702;50.898;4.662;2023-04-25T12:38:45;12.00;99.90
29803;DHT22;16702;50.898;4.662;2023-04-25T12:41:17;12.20;99.90
29803;DHT22;16702;50.898;4.662;2023-04-25T12:43:47;12.20;99.90
29803;DHT22;16702;50.898;4.662;2023-04-25T12:46:20;12.20;99.90
29803;DHT22;16702;50.898;4.662;2023-04-25T12:48:51;12.30;99.90
29803;DHT22;16702;50.898;4.662;2023-04-25T12:51:28;12.60;99.90
29803;DHT22;16702;50.898;4.662;2023-04-25T12:54:00;12.90;99.90
29803;DHT22;16702;50.898;4.662;2023-04-25T12:56:31;13.00;99.90
29803;DHT22;16702;50.898;4.662;2023-04-25T12:59:01;13.40;99.90
29803;DHT22;16702;50.898;4.662;2023-04-25T13:01:35;13.30;99.90
29803;DHT22;16702;50.898;4.662;2023-04-25T13:04:06;13.50;99.90
29803;DHT22;16702;50.898;4.662;2023-04-25T13:06:37;13.30;99.90
29803;DHT22;16702;50.898;4.662;2023-04-25T13:09:07;13.60;99.90
29803;DHT22;16702;50.898;4.662;2023-04-25T13:11:40;13.80;99.90
29803;DHT22;16702;50.898;4.662;2023-04-25T13:14:10;13.70;99.90
29803;DHT22;16702;50.898;4.662;2023-04-25T13:16:44;13.60;99.90
29803;DHT22;16702;50.898;4.662;2023-04-25T13:19:14;13.50;99.90
29803;DHT22;16702;50.898;4.662;2023-04-25T13:21:45;13.20;99.90
29803;DHT22;16702;50.898;4.662;2023-04-25T13:24:15;13.10;99.90
29803;DHT22;16702;50.898;4.662;2023-04-25T13:26:46;13.00;99.90
29803;DHT22;16702;50.898;4.662;2023-04-25T13:29:16;13.10;99.90
29803;DHT22;16702;50.898;4.662;2023-04-25T13:31:49;13.40;99.90
29803;DHT22;16702;50.898;4.662;2023-04-25T13:34:20;13.50;99.90
29803;DHT22;16702;50.898;4.662;2023-04-25T13:36:50;13.80;99.90
29803;DHT22;16702;50.898;4.662;2023-04-25T13:39:22;13.80;99.90
29803;DHT22;16702;50.898;4.662;2023-04-25T13:41:52;14.10;99.90
29803;DHT22;16702;50.898;4.662;2023-04-25T13:44:23;13.90;99.90
29803;DHT22;16702;50.898;4.662;2023-04-25T13:46:56;13.90;99.90
29803;DHT22;16702;50.898;4.662;2023-04-25T13:49:28;14.00;99.90
29803;DHT22;16702;50.898;4.662;2023-04-25T13:51:58;14.10;99.90
29803;DHT22;16702;50.898;4.662;2023-04-25T13:54:29;14.10;99.90
29803;DHT22;16702;50.898;4.662;2023-04-25T13:56:59;14.30;99.90
29803;DHT22;16702;50.898;4.662;2023-04-25T13:59:30;14.30;99.90
29803;DHT22;16702;50.898;4.662;2023-04-25T14:02:03;14.60;99.90
29803;DHT22;16702;50.898;4.662;2023-04-25T14:04:33;14.40;99.90
29803;DHT22;16702;50.898;4.662;2023-04-25T14:07:04;13.80;99.90
29803;DHT22;16702;50.898;4.662;2023-04-25T14:09:35;13.70;99.90
29803;DHT22;16702;50.898;4.662;2023-04-25T14:12:05;13.60;99.90
29803;DHT22;16702;50.898;4.662;2023-04-25T14:14:36;13.40;99.90
29803;DHT22;16702;50.898;4.662;2023-04-25T14:17:09;13.50;99.90
29803;DHT22;16702;50.898;4.662;2023-04-25T14:19:40;13.40;99.90
29803;DHT22;16702;50.898;4.662;2023-04-25T14:22:12;13.40;99.90
29803;DHT22;16702;50.898;4.662;2023-04-25T14:24:43;13.70;99.90
29803;DHT22;16702;50.898;4.662;2023-04-25T14:27:13;14.10;99.90
29803;DHT22;16702;50.898;4.662;2023-04-25T14:29:44;14.30;99.90
29803;DHT22;16702;50.898;4.662;2023-04-25T14:32:17;14.20;99.90
29803;DHT22;16702;50.898;4.662;2023-04-25T14:34:48;14.20;99.90
29803;DHT22;16702;50.898;4.662;2023-04-25T14:37:19;14.40;99.90
29803;DHT22;16702;50.898;4.662;2023-04-25T14:39:49;14.40;99.90
29803;DHT22;16702;50.898;4.662;2023-04-25T14:42:20;14.50;99.90
29803;DHT22;16702;50.898;4.662;2023-04-25T14:44:50;14.30;99.90
29803;DHT22;16702;50.898;4.662;2023-04-25T14:47:24;14.00;99.90
29803;DHT22;16702;50.898;4.662;2023-04-25T14:49:55;13.80;99.90
29803;DHT22;16702;50.898;4.662;2023-04-25T14:52:26;13.90;99.90
29803;DHT22;16702;50.898;4.662;2023-04-25T14:54:56;13.90;99.90
29803;DHT22;16702;50.898;4.662;2023-04-25T14:57:27;13.70;99.90
29803;DHT22;16702;50.898;4.662;2023-04-25T14:59:58;13.80;99.90
29803;DHT22;16702;50.898;4.662;2023-04-25T15:02:31;13.60;99.90
29803;DHT22;16702;50.898;4.662;2023-04-25T15:05:03;13.70;99.90
29803;DHT22;16702;50.898;4.662;2023-04-25T15:07:34;13.70;99.90
29803;DHT22;16702;50.898;4.662;2023-04-25T15:10:05;13.70;99.90
29803;DHT22;16702;50.898;4.662;2023-04-25T15:12:40;13.70;99.90
29803;DHT22;16702;50.898;4.662;2023-04-25T15:15:14;13.60;99.90
29803;DHT22;16702;50.898;4.662;2023-04-25T15:17:55;13.60;99.90
29803;DHT22;16702;50.898;4.662;2023-04-25T15:20:26;13.50;99.90
29803;DHT22;16702;50.898;4.662;2023-04-25T15:22:57;13.40;99.90
29803;DHT22;16702;50.898;4.662;2023-04-25T15:25:30;13.60;99.90
29803;DHT22;16702;50.898;4.662;2023-04-25T15:28:01;13.60;99.90
29803;DHT22;16702;50.898;4.662;2023-04-25T15:30:32;13.70;99.90
29803;DHT22;16702;50.898;4.662;2023-04-25T15:33:05;13.60;99.90
29803;DHT22;16702;50.898;4.662;2023-04-25T15:35:35;13.40;99.90
29803;DHT22;16702;50.898;4.662;2023-04-25T15:38:06;13.50;99.90
29803;DHT22;16702;50.898;4.662;2023-04-25T15:40:37;13.50;99.90
29803;DHT22;16702;50.898;4.662;2023-04-25T15:43:08;13.30;99.90
29803;DHT22;16702;50.898;4.662;2023-04-25T15:45:42;13.30;99.90
29803;DHT22;16702;50.898;4.662;2023-04-25T15:48:15;13.40;99.90
29803;DHT22;16702;50.898;4.662;2023-04-25T15:50:46;13.30;99.90
29803;DHT22;16702;50.898;4.662;2023-04-25T15:53:16;13.50;99.90
29803;DHT22;16702;50.898;4.662;2023-04-25T15:55:47;13.50;99.90
29803;DHT22;16702;50.898;4.662;2023-04-25T15:58:17;13.70;99.90
29803;DHT22;16702;50.898;4.662;2023-04-25T16:00:48;13.70;99.90
29803;DHT22;16702;50.898;4.662;2023-04-25T16:03:22;13.70;99.90
29803;DHT22;16702;50.898;4.662;2023-04-25T16:05:53;13.60;99.90
29803;DHT22;16702;50.898;4.662;2023-04-25T16:08:24;13.90;99.90
29803;DHT22;16702;50.898;4.662;2023-04-25T16:10:56;14.10;99.90
29803;DHT22;16702;50.898;4.662;2023-04-25T16:13:26;13.90;99.90
29803;DHT22;16702;50.898;4.662;2023-04-25T16:15:57;14.00;99.90